createdAt,value
2022-12-24T00:00:01.604Z,1.40
2022-12-24T00:00:11.683Z,1.20
2022-12-24T00:00:21.583Z,1.00
2022-12-24T00:00:31.719Z,1.00
2022-12-24T00:00:41.642Z,1.00
2022-12-24T00:00:51.621Z,1.90
2022-12-24T00:01:01.587Z,1.70
2022-12-24T00:01:11.605Z,2.10
2022-12-24T00:01:21.614Z,1.20
2022-12-24T00:01:31.610Z,1.20
2022-12-24T00:01:41.640Z,0.60
2022-12-24T00:01:51.579Z,1.20
2022-12-24T00:02:01.641Z,1.40
2022-12-24T00:02:11.744Z,1.60
2022-12-24T00:02:21.821Z,1.40
2022-12-24T00:02:31.682Z,1.00
2022-12-24T00:02:41.663Z,1.40
2022-12-24T00:02:51.707Z,1.10
2022-12-24T00:03:01.690Z,1.60
2022-12-24T00:03:11.732Z,1.40
2022-12-24T00:03:21.786Z,1.70
2022-12-24T00:03:31.937Z,1.40
2022-12-24T00:03:41.667Z,1.40
2022-12-24T00:03:51.594Z,1.80
2022-12-24T00:04:01.549Z,1.80
2022-12-24T00:04:11.595Z,1.90
2022-12-24T00:04:21.646Z,1.50
2022-12-24T00:04:31.607Z,1.40
2022-12-24T00:04:41.554Z,3.00
2022-12-24T00:04:55.678Z,3.00
2022-12-24T00:05:01.827Z,4.90
2022-12-24T00:05:11.564Z,3.10
2022-12-24T00:05:21.600Z,2.60
2022-12-24T00:05:31.600Z,0.90
2022-12-24T00:05:41.605Z,1.40
2022-12-24T00:05:51.654Z,1.20
2022-12-24T00:06:01.557Z,1.60
2022-12-24T00:06:11.602Z,1.20
2022-12-24T00:06:21.526Z,1.40
2022-12-24T00:06:31.582Z,1.40
2022-12-24T00:06:41.518Z,1.30
2022-12-24T00:06:51.576Z,1.20
2022-12-24T00:07:01.647Z,1.80
2022-12-24T00:07:11.569Z,2.40
2022-12-24T00:07:21.615Z,2.40
2022-12-24T00:07:31.659Z,1.60
2022-12-24T00:07:41.545Z,1.30
2022-12-24T00:07:51.557Z,1.20
2022-12-24T00:08:01.538Z,0.80
2022-12-24T00:08:11.544Z,0.80
2022-12-24T00:08:21.617Z,1.50
2022-12-24T00:08:31.568Z,1.60
2022-12-24T00:08:41.631Z,1.90
2022-12-24T00:08:51.588Z,1.00
2022-12-24T00:09:01.631Z,0.80
2022-12-24T00:09:11.631Z,0.70
2022-12-24T00:09:21.527Z,1.00
2022-12-24T00:09:31.644Z,1.30
2022-12-24T00:09:41.634Z,1.20
2022-12-24T00:09:51.615Z,1.00
2022-12-24T00:10:01.559Z,0.90
2022-12-24T00:10:11.617Z,0.70
2022-12-24T00:10:21.597Z,1.60
2022-12-24T00:10:31.630Z,1.50
2022-12-24T00:10:41.588Z,1.90
2022-12-24T00:10:51.665Z,1.60
2022-12-24T00:11:01.611Z,3.00
2022-12-24T00:11:11.559Z,2.40
2022-12-24T00:11:21.580Z,1.70
2022-12-24T00:11:31.644Z,1.10
2022-12-24T00:11:41.651Z,1.40
2022-12-24T00:11:51.627Z,2.10
2022-12-24T00:12:01.587Z,1.80
2022-12-24T00:12:11.528Z,2.90
2022-12-24T00:12:21.561Z,2.60
2022-12-24T00:12:31.521Z,3.00
2022-12-24T00:12:41.600Z,1.60
2022-12-24T00:12:51.623Z,2.30
2022-12-24T00:13:01.646Z,1.80
2022-12-24T00:13:11.569Z,1.70
2022-12-24T00:13:21.634Z,1.20
2022-12-24T00:13:31.616Z,1.20
2022-12-24T00:13:41.588Z,1.40
2022-12-24T00:13:51.584Z,1.50
2022-12-24T00:14:01.611Z,1.50
2022-12-24T00:14:11.650Z,2.20
2022-12-24T00:14:21.652Z,1.80
2022-12-24T00:14:31.594Z,1.60
2022-12-24T00:14:41.578Z,1.20
2022-12-24T00:14:51.585Z,2.20
2022-12-24T00:15:01.641Z,2.50
2022-12-24T00:15:11.589Z,2.70
2022-12-24T00:15:21.632Z,3.20
2022-12-24T00:15:31.676Z,3.00
2022-12-24T00:15:41.539Z,2.50
2022-12-24T00:15:51.540Z,0.80
2022-12-24T00:16:01.632Z,0.80
2022-12-24T00:16:11.570Z,0.60
2022-12-24T00:16:21.649Z,0.80
2022-12-24T00:16:31.633Z,0.90
2022-12-24T00:16:41.594Z,1.30
2022-12-24T00:16:51.650Z,1.00
2022-12-24T00:17:01.598Z,1.10
2022-12-24T00:17:11.673Z,0.70
2022-12-24T00:17:21.617Z,1.80
2022-12-24T00:17:31.634Z,1.90
2022-12-24T00:17:41.561Z,3.40
2022-12-24T00:17:51.678Z,2.20
2022-12-24T00:18:01.557Z,2.70
2022-12-24T00:18:11.644Z,1.50
2022-12-24T00:18:21.602Z,1.70
2022-12-24T00:18:31.652Z,1.10
2022-12-24T00:18:45.854Z,1.10
2022-12-24T00:18:51.550Z,1.00
2022-12-24T00:19:01.567Z,1.50
2022-12-24T00:19:11.557Z,1.40
2022-12-24T00:19:21.635Z,2.00
2022-12-24T00:19:31.574Z,1.60
2022-12-24T00:19:41.664Z,1.40
2022-12-24T00:19:51.645Z,0.80
2022-12-24T00:20:01.590Z,1.50
2022-12-24T00:20:11.635Z,1.90
2022-12-24T00:20:21.545Z,2.10
2022-12-24T00:20:31.533Z,1.20
2022-12-24T00:20:41.584Z,1.30
2022-12-24T00:20:51.634Z,1.10
2022-12-24T00:21:01.650Z,1.50
2022-12-24T00:21:11.521Z,1.40
2022-12-24T00:21:21.557Z,2.90
2022-12-24T00:21:31.547Z,4.30
2022-12-24T00:21:41.526Z,4.20
2022-12-24T00:21:51.593Z,3.70
2022-12-24T00:22:01.523Z,2.20
2022-12-24T00:22:11.623Z,2.00
2022-12-24T00:22:21.545Z,1.20
2022-12-24T00:22:31.643Z,1.70
2022-12-24T00:22:41.635Z,2.00
2022-12-24T00:22:51.525Z,3.40
2022-12-24T00:23:01.552Z,2.60
2022-12-24T00:23:11.552Z,2.30
2022-12-24T00:23:21.525Z,1.00
2022-12-24T00:23:31.631Z,1.40
2022-12-24T00:23:41.596Z,1.50
2022-12-24T00:23:51.592Z,1.20
2022-12-24T00:24:01.616Z,2.00
2022-12-24T00:24:11.554Z,2.00
2022-12-24T00:24:21.593Z,2.30
2022-12-24T00:24:31.631Z,1.80
2022-12-24T00:24:41.627Z,2.90
2022-12-24T00:24:51.639Z,3.90
2022-12-24T00:25:01.537Z,3.70
2022-12-24T00:25:11.598Z,3.10
2022-12-24T00:25:21.627Z,1.90
2022-12-24T00:25:31.569Z,2.10
2022-12-24T00:25:41.604Z,1.80
2022-12-24T00:25:51.609Z,2.50
2022-12-24T00:26:01.559Z,2.30
2022-12-24T00:26:11.643Z,2.50
2022-12-24T00:26:21.571Z,1.70
2022-12-24T00:26:31.588Z,2.00
2022-12-24T00:26:41.651Z,1.60
2022-12-24T00:26:51.519Z,2.50
2022-12-24T00:27:01.630Z,2.80
2022-12-24T00:27:11.658Z,2.50
2022-12-24T00:27:21.581Z,1.70
2022-12-24T00:27:31.530Z,0.90
2022-12-24T00:27:41.633Z,2.60
2022-12-24T00:27:51.527Z,3.20
2022-12-24T00:28:01.630Z,3.00
2022-12-24T00:28:11.647Z,1.40
2022-12-24T00:28:21.523Z,0.80
2022-12-24T00:28:31.606Z,2.60
2022-12-24T00:28:41.556Z,4.20
2022-12-24T00:28:51.619Z,5.20
2022-12-24T00:29:01.660Z,4.30
2022-12-24T00:29:11.533Z,4.30
2022-12-24T00:29:21.569Z,3.30
2022-12-24T00:29:31.548Z,2.80
2022-12-24T00:29:41.611Z,1.20
2022-12-24T00:29:51.553Z,2.00
2022-12-24T00:30:01.595Z,2.70
2022-12-24T00:30:11.618Z,4.00
2022-12-24T00:30:21.574Z,3.00
2022-12-24T00:30:31.650Z,2.40
2022-12-24T00:30:41.593Z,1.30
2022-12-24T00:30:51.587Z,1.50
2022-12-24T00:31:01.717Z,1.80
2022-12-24T00:31:11.607Z,2.80
2022-12-24T00:31:21.626Z,3.20
2022-12-24T00:31:31.781Z,2.90
2022-12-24T00:31:41.522Z,2.30
2022-12-24T00:31:51.643Z,1.80
2022-12-24T00:32:01.578Z,1.50
2022-12-24T00:32:11.578Z,2.00
2022-12-24T00:32:21.523Z,1.80
2022-12-24T00:32:31.595Z,2.60
2022-12-24T00:32:41.635Z,1.70
2022-12-24T00:32:51.580Z,2.00
2022-12-24T00:33:01.546Z,1.60
2022-12-24T00:33:11.570Z,1.50
2022-12-24T00:33:24.685Z,1.00
2022-12-24T00:33:31.565Z,1.50
2022-12-24T00:33:41.552Z,1.60
2022-12-24T00:33:51.562Z,2.40
2022-12-24T00:34:01.619Z,1.90
2022-12-24T00:34:11.599Z,2.30
2022-12-24T00:34:21.632Z,1.70
2022-12-24T00:34:31.602Z,1.70
2022-12-24T00:34:41.528Z,2.10
2022-12-24T00:34:51.635Z,2.10
2022-12-24T00:35:01.538Z,2.70
2022-12-24T00:35:11.637Z,2.80
2022-12-24T00:35:21.626Z,2.60
2022-12-24T00:35:31.614Z,2.70
2022-12-24T00:35:41.567Z,1.60
2022-12-24T00:35:51.620Z,2.70
2022-12-24T00:36:01.581Z,1.80
2022-12-24T00:36:11.528Z,2.20
2022-12-24T00:36:21.635Z,2.10
2022-12-24T00:36:31.632Z,2.70
2022-12-24T00:36:41.518Z,2.70
2022-12-24T00:36:51.553Z,2.80
2022-12-24T00:37:01.635Z,4.00
2022-12-24T00:37:11.590Z,3.70
2022-12-24T00:37:21.597Z,3.90
2022-12-24T00:37:31.577Z,2.80
2022-12-24T00:37:41.661Z,3.70
2022-12-24T00:37:51.530Z,3.30
2022-12-24T00:38:01.536Z,3.20
2022-12-24T00:38:11.614Z,2.30
2022-12-24T00:38:21.636Z,1.40
2022-12-24T00:38:31.606Z,1.40
2022-12-24T00:38:41.518Z,1.90
2022-12-24T00:38:51.610Z,2.60
2022-12-24T00:39:01.518Z,2.40
2022-12-24T00:39:11.532Z,2.20
2022-12-24T00:39:21.612Z,1.80
2022-12-24T00:39:31.559Z,2.00
2022-12-24T00:39:41.576Z,3.00
2022-12-24T00:39:51.536Z,3.30
2022-12-24T00:40:01.689Z,3.20
2022-12-24T00:40:11.583Z,1.80
2022-12-24T00:40:21.526Z,1.90
2022-12-24T00:40:31.658Z,1.40
2022-12-24T00:40:41.537Z,1.70
2022-12-24T00:40:51.616Z,1.30
2022-12-24T00:41:01.545Z,1.10
2022-12-24T00:41:11.642Z,0.80
2022-12-24T00:41:21.536Z,0.50
2022-12-24T00:41:31.671Z,0.60
2022-12-24T00:41:41.565Z,1.00
2022-12-24T00:41:51.564Z,0.90
2022-12-24T00:42:01.557Z,1.00
2022-12-24T00:42:11.617Z,1.30
2022-12-24T00:42:21.545Z,1.70
2022-12-24T00:42:31.575Z,2.00
2022-12-24T00:42:41.525Z,1.20
2022-12-24T00:42:51.591Z,1.60
2022-12-24T00:43:01.569Z,1.70
2022-12-24T00:43:11.530Z,2.90
2022-12-24T00:43:21.569Z,2.00
2022-12-24T00:43:31.518Z,1.70
2022-12-24T00:43:41.642Z,0.70
2022-12-24T00:43:51.575Z,1.10
2022-12-24T00:44:01.654Z,0.90
2022-12-24T00:44:11.550Z,0.70
2022-12-24T00:44:21.653Z,0.50
2022-12-24T00:44:31.637Z,0.70
2022-12-24T00:44:41.586Z,1.80
2022-12-24T00:44:51.618Z,1.70
2022-12-24T00:45:01.539Z,1.60
2022-12-24T00:45:11.610Z,1.10
2022-12-24T00:45:21.646Z,1.80
2022-12-24T00:45:31.536Z,1.80
2022-12-24T00:45:41.658Z,1.30
2022-12-24T00:45:51.650Z,0.60
2022-12-24T00:46:01.577Z,1.00
2022-12-24T00:46:11.610Z,1.00
2022-12-24T00:46:21.617Z,1.00
2022-12-24T00:46:31.670Z,0.80
2022-12-24T00:46:41.683Z,0.70
2022-12-24T00:46:51.617Z,1.20
2022-12-24T00:47:05.428Z,1.20
2022-12-24T00:47:12.327Z,1.20
2022-12-24T00:47:21.579Z,0.80
2022-12-24T00:47:31.562Z,1.00
2022-12-24T00:47:41.556Z,0.90
2022-12-24T00:47:51.640Z,0.90
2022-12-24T00:48:01.623Z,0.60
2022-12-24T00:48:11.685Z,0.80
2022-12-24T00:48:21.568Z,0.90
2022-12-24T00:48:31.556Z,1.60
2022-12-24T00:48:41.588Z,1.60
2022-12-24T00:48:51.538Z,1.40
2022-12-24T00:49:01.569Z,1.20
2022-12-24T00:49:11.638Z,2.10
2022-12-24T00:49:21.538Z,2.50
2022-12-24T00:49:31.608Z,1.90
2022-12-24T00:49:41.649Z,1.10
2022-12-24T00:49:51.655Z,0.90
2022-12-24T00:50:01.553Z,1.60
2022-12-24T00:50:11.636Z,1.40
2022-12-24T00:50:21.637Z,2.10
2022-12-24T00:50:31.621Z,1.50
2022-12-24T00:50:41.617Z,1.70
2022-12-24T00:50:51.655Z,1.20
2022-12-24T00:51:01.791Z,1.20
2022-12-24T00:51:11.712Z,1.40
2022-12-24T00:51:21.686Z,1.00
2022-12-24T00:51:31.734Z,0.90
2022-12-24T00:51:41.608Z,0.90
2022-12-24T00:51:51.634Z,1.20
2022-12-24T00:52:01.657Z,1.10
2022-12-24T00:52:11.646Z,0.70
2022-12-24T00:52:21.548Z,1.00
2022-12-24T00:52:31.580Z,1.20
2022-12-24T00:52:41.562Z,1.20
2022-12-24T00:52:51.622Z,1.70
2022-12-24T00:53:01.661Z,1.50
2022-12-24T00:53:11.586Z,1.40
2022-12-24T00:53:21.621Z,0.80
2022-12-24T00:53:31.531Z,1.40
2022-12-24T00:53:41.519Z,1.40
2022-12-24T00:53:51.745Z,1.20
2022-12-24T00:54:01.608Z,1.40
2022-12-24T00:54:11.540Z,1.40
2022-12-24T00:54:21.563Z,1.20
2022-12-24T00:54:31.610Z,0.50
2022-12-24T00:54:41.560Z,0.80
2022-12-24T00:54:51.580Z,1.00
2022-12-24T00:55:01.627Z,1.10
2022-12-24T00:55:11.573Z,1.00
2022-12-24T00:55:21.575Z,1.20
2022-12-24T00:55:31.627Z,1.70
2022-12-24T00:55:41.522Z,1.50
2022-12-24T00:55:51.597Z,0.80
2022-12-24T00:56:01.616Z,0.50
2022-12-24T00:56:11.621Z,0.60
2022-12-24T00:56:21.590Z,1.00
2022-12-24T00:56:31.650Z,0.80
2022-12-24T00:56:41.521Z,1.80
2022-12-24T00:56:51.575Z,1.50
2022-12-24T00:57:01.522Z,1.60
2022-12-24T00:57:11.566Z,0.50
2022-12-24T00:57:21.529Z,1.30
2022-12-24T00:57:31.630Z,1.30
2022-12-24T00:57:41.597Z,1.30
2022-12-24T00:57:51.547Z,1.30
2022-12-24T00:58:01.631Z,1.30
2022-12-24T00:58:11.641Z,1.30
2022-12-24T00:58:21.565Z,1.40
2022-12-24T00:58:31.572Z,2.20
2022-12-24T00:58:41.645Z,2.30
2022-12-24T00:58:51.631Z,2.10
2022-12-24T00:59:01.641Z,1.10
2022-12-24T00:59:11.600Z,1.80
2022-12-24T00:59:21.597Z,1.00
2022-12-24T00:59:31.613Z,1.10
2022-12-24T00:59:41.604Z,0.50
2022-12-24T00:59:51.589Z,0.50
2022-12-24T01:00:01.526Z,0.70
2022-12-24T01:00:11.651Z,0.60
2022-12-24T01:00:21.554Z,2.10
2022-12-24T01:00:31.528Z,2.00
2022-12-24T01:00:41.587Z,2.00
2022-12-24T01:00:51.638Z,0.40
2022-12-24T01:01:01.749Z,0.70
2022-12-24T01:01:11.762Z,0.80
2022-12-24T01:01:21.681Z,0.90
2022-12-24T01:01:31.661Z,0.50
2022-12-24T01:01:41.718Z,0.60
2022-12-24T01:01:51.780Z,0.50
2022-12-24T01:02:01.733Z,1.20
2022-12-24T01:02:11.715Z,0.90
2022-12-24T01:02:21.824Z,1.30
2022-12-24T01:02:31.880Z,1.00
2022-12-24T01:02:41.774Z,1.50
2022-12-24T01:02:51.905Z,1.80
2022-12-24T01:03:01.903Z,1.50
2022-12-24T01:03:11.626Z,1.00
2022-12-24T01:03:21.673Z,1.10
2022-12-24T01:03:31.683Z,1.20
2022-12-24T01:03:41.689Z,1.60
2022-12-24T01:03:51.896Z,0.70
2022-12-24T01:04:01.522Z,1.20
2022-12-24T01:04:11.638Z,0.90
2022-12-24T01:04:21.588Z,1.30
2022-12-24T01:04:31.650Z,0.70
2022-12-24T01:04:41.608Z,1.30
2022-12-24T01:04:51.577Z,1.10
2022-12-24T01:05:01.531Z,1.20
2022-12-24T01:05:11.594Z,0.60
2022-12-24T01:05:21.560Z,0.60
2022-12-24T01:05:31.574Z,0.50
2022-12-24T01:05:41.558Z,0.70
2022-12-24T01:05:51.551Z,1.70
2022-12-24T01:06:01.629Z,2.30
2022-12-24T01:06:11.611Z,2.20
2022-12-24T01:06:21.562Z,1.50
2022-12-24T01:06:31.638Z,0.70
2022-12-24T01:06:41.557Z,0.80
2022-12-24T01:06:51.615Z,2.10
2022-12-24T01:07:01.586Z,2.50
2022-12-24T01:07:11.697Z,3.10
2022-12-24T01:07:21.635Z,2.30
2022-12-24T01:07:31.660Z,1.90
2022-12-24T01:07:41.636Z,1.30
2022-12-24T01:07:51.636Z,2.40
2022-12-24T01:08:01.636Z,2.50
2022-12-24T01:08:11.554Z,2.90
2022-12-24T01:08:21.584Z,1.60
2022-12-24T01:08:31.642Z,8.60
2022-12-24T01:08:41.586Z,8.60
2022-12-24T01:08:51.715Z,8.80
2022-12-24T01:09:01.546Z,2.80
2022-12-24T01:09:11.549Z,2.90
2022-12-24T01:09:21.607Z,2.70
2022-12-24T01:09:31.540Z,1.60
2022-12-24T01:09:41.608Z,1.00
2022-12-24T01:09:51.574Z,1.20
2022-12-24T01:10:01.643Z,1.80
2022-12-24T01:10:11.519Z,2.70
2022-12-24T01:10:21.619Z,2.40
2022-12-24T01:10:31.635Z,2.60
2022-12-24T01:10:41.543Z,2.50
2022-12-24T01:10:51.558Z,2.60
2022-12-24T01:11:01.519Z,2.40
2022-12-24T01:11:11.518Z,1.80
2022-12-24T01:11:21.581Z,1.80
2022-12-24T01:11:31.544Z,2.00
2022-12-24T01:11:41.651Z,1.80
2022-12-24T01:11:51.612Z,2.40
2022-12-24T01:12:01.561Z,1.70
2022-12-24T01:12:11.643Z,2.40
2022-12-24T01:12:21.529Z,2.10
2022-12-24T01:12:31.586Z,2.20
2022-12-24T01:12:41.655Z,2.20
2022-12-24T01:12:51.526Z,1.90
2022-12-24T01:13:01.546Z,1.50
2022-12-24T01:13:11.544Z,1.20
2022-12-24T01:13:21.542Z,1.40
2022-12-24T01:13:31.644Z,1.90
2022-12-24T01:13:41.560Z,1.70
2022-12-24T01:13:51.639Z,1.80
2022-12-24T01:14:01.598Z,3.00
2022-12-24T01:14:11.578Z,3.20
2022-12-24T01:14:21.666Z,3.00
2022-12-24T01:14:31.588Z,1.40
2022-12-24T01:14:41.538Z,1.10
2022-12-24T01:14:51.577Z,1.10
2022-12-24T01:15:01.630Z,2.00
2022-12-24T01:15:11.641Z,2.40
2022-12-24T01:15:21.557Z,2.80
2022-12-24T01:15:31.626Z,2.20
2022-12-24T01:15:41.607Z,2.00
2022-12-24T01:15:51.618Z,2.00
2022-12-24T01:16:01.653Z,1.70
2022-12-24T01:16:11.628Z,2.90
2022-12-24T01:16:21.708Z,3.70
2022-12-24T01:16:31.683Z,4.50
2022-12-24T01:16:41.569Z,3.30
2022-12-24T01:16:51.618Z,2.30
2022-12-24T01:17:01.546Z,3.20
2022-12-24T01:17:11.534Z,3.10
2022-12-24T01:17:21.661Z,4.40
2022-12-24T01:17:31.601Z,3.20
2022-12-24T01:17:41.519Z,3.70
2022-12-24T01:17:51.567Z,3.50
2022-12-24T01:18:01.594Z,2.90
2022-12-24T01:18:11.538Z,5.40
2022-12-24T01:18:21.550Z,4.70
2022-12-24T01:18:31.613Z,5.00
2022-12-24T01:18:41.639Z,2.90
2022-12-24T01:18:51.605Z,3.00
2022-12-24T01:19:01.531Z,3.00
2022-12-24T01:19:11.535Z,3.40
2022-12-24T01:19:21.642Z,3.60
2022-12-24T01:19:31.600Z,4.60
2022-12-24T01:19:41.532Z,3.90
2022-12-24T01:19:51.551Z,3.10
2022-12-24T01:20:01.664Z,2.20
2022-12-24T01:20:11.618Z,2.10
2022-12-24T01:20:21.661Z,2.10
2022-12-24T01:20:31.733Z,2.20
2022-12-24T01:20:41.557Z,1.80
2022-12-24T01:20:51.597Z,2.00
2022-12-24T01:21:01.543Z,1.70
2022-12-24T01:21:11.524Z,2.10
2022-12-24T01:21:21.612Z,2.20
2022-12-24T01:21:31.612Z,3.30
2022-12-24T01:21:41.546Z,3.40
2022-12-24T01:21:51.575Z,4.50
2022-12-24T01:22:01.571Z,4.50
2022-12-24T01:22:11.605Z,5.10
2022-12-24T01:22:21.539Z,3.50
2022-12-24T01:22:31.536Z,2.70
2022-12-24T01:22:41.574Z,2.10
2022-12-24T01:22:51.637Z,3.50
2022-12-24T01:23:01.570Z,4.00
2022-12-24T01:23:11.571Z,4.10
2022-12-24T01:23:21.556Z,3.10
2022-12-24T01:23:31.646Z,3.60
2022-12-24T01:23:41.624Z,4.20
2022-12-24T01:23:51.628Z,5.70
2022-12-24T01:24:01.636Z,5.90
2022-12-24T01:24:11.597Z,5.50
2022-12-24T01:24:21.543Z,3.90
2022-12-24T01:24:31.615Z,3.40
2022-12-24T01:24:41.636Z,3.20
2022-12-24T01:24:51.599Z,2.90
2022-12-24T01:25:01.567Z,3.80
2022-12-24T01:25:11.620Z,4.20
2022-12-24T01:25:21.607Z,5.10
2022-12-24T01:25:31.591Z,3.40
2022-12-24T01:25:41.561Z,2.90
2022-12-24T01:25:51.710Z,3.60
2022-12-24T01:26:01.553Z,3.90
2022-12-24T01:26:11.608Z,4.40
2022-12-24T01:26:21.585Z,4.10
2022-12-24T01:26:31.602Z,4.60
2022-12-24T01:26:41.595Z,4.50
2022-12-24T01:26:51.582Z,4.90
2022-12-24T01:27:01.681Z,4.10
2022-12-24T01:27:11.599Z,3.20
2022-12-24T01:27:21.529Z,2.70
2022-12-24T01:27:31.517Z,4.30
2022-12-24T01:27:41.611Z,4.80
2022-12-24T01:27:51.643Z,4.90
2022-12-24T01:28:01.655Z,3.50
2022-12-24T01:28:11.644Z,4.50
2022-12-24T01:28:21.583Z,5.10
2022-12-24T01:28:31.618Z,4.90
2022-12-24T01:28:41.547Z,3.60
2022-12-24T01:28:51.629Z,4.60
2022-12-24T01:29:01.619Z,4.40
2022-12-24T01:29:11.606Z,4.40
2022-12-24T01:29:21.609Z,3.00
2022-12-24T01:29:31.655Z,4.80
2022-12-24T01:29:41.600Z,5.40
2022-12-24T01:29:51.677Z,5.10
2022-12-24T01:30:01.573Z,3.30
2022-12-24T01:30:11.642Z,2.80
2022-12-24T01:30:21.535Z,2.50
2022-12-24T01:30:31.536Z,2.70
2022-12-24T01:30:41.635Z,3.10
2022-12-24T01:30:51.654Z,3.80
2022-12-24T01:31:01.737Z,3.60
2022-12-24T01:31:11.608Z,3.70
2022-12-24T01:31:21.657Z,3.10
2022-12-24T01:31:31.685Z,3.20
2022-12-24T01:31:41.682Z,2.30
2022-12-24T01:31:51.600Z,3.30
2022-12-24T01:32:01.617Z,4.20
2022-12-24T01:32:11.547Z,4.50
2022-12-24T01:32:21.620Z,3.80
2022-12-24T01:32:31.629Z,3.40
2022-12-24T01:32:41.607Z,3.50
2022-12-24T01:32:51.629Z,4.90
2022-12-24T01:33:01.603Z,3.90
2022-12-24T01:33:11.605Z,4.10
2022-12-24T01:33:21.559Z,2.40
2022-12-24T01:33:31.523Z,3.70
2022-12-24T01:33:41.676Z,4.60
2022-12-24T01:33:51.575Z,4.80
2022-12-24T01:34:01.616Z,3.50
2022-12-24T01:34:11.539Z,2.70
2022-12-24T01:34:21.630Z,3.10
2022-12-24T01:34:31.540Z,3.50
2022-12-24T01:34:41.599Z,4.10
2022-12-24T01:34:51.527Z,4.00
2022-12-24T01:35:01.593Z,4.40
2022-12-24T01:35:11.619Z,3.80
2022-12-24T01:35:21.628Z,3.50
2022-12-24T01:35:31.614Z,2.90
2022-12-24T01:35:41.625Z,3.20
2022-12-24T01:35:51.641Z,3.30
2022-12-24T01:36:01.572Z,3.50
2022-12-24T01:36:11.624Z,2.60
2022-12-24T01:36:21.650Z,2.40
2022-12-24T01:36:31.626Z,2.80
2022-12-24T01:36:41.652Z,3.60
2022-12-24T01:36:51.609Z,4.60
2022-12-24T01:37:01.575Z,4.40
2022-12-24T01:37:11.551Z,5.30
2022-12-24T01:37:21.619Z,4.10
2022-12-24T01:37:31.619Z,5.20
2022-12-24T01:37:41.646Z,6.20
2022-12-24T01:37:51.631Z,7.70
2022-12-24T01:38:01.577Z,8.10
2022-12-24T01:38:11.613Z,6.50
2022-12-24T01:38:21.582Z,6.80
2022-12-24T01:38:31.582Z,6.00
2022-12-24T01:38:41.595Z,6.40
2022-12-24T01:38:51.571Z,6.40
2022-12-24T01:39:01.543Z,5.90
2022-12-24T01:39:11.522Z,6.10
2022-12-24T01:39:21.654Z,6.30
2022-12-24T01:39:31.650Z,7.60
2022-12-24T01:39:41.569Z,7.40
2022-12-24T01:39:51.650Z,7.20
2022-12-24T01:40:01.586Z,6.40
2022-12-24T01:40:11.606Z,6.70
2022-12-24T01:40:21.641Z,5.80
2022-12-24T01:40:31.601Z,7.00
2022-12-24T01:40:41.645Z,6.60
2022-12-24T01:40:51.614Z,6.60
2022-12-24T01:41:01.557Z,4.70
2022-12-24T01:41:11.561Z,3.70
2022-12-24T01:41:21.670Z,2.70
2022-12-24T01:41:31.628Z,2.20
2022-12-24T01:41:41.633Z,1.70
2022-12-24T01:41:51.542Z,2.60
2022-12-24T01:42:01.626Z,2.40
2022-12-24T01:42:11.568Z,2.80
2022-12-24T01:42:21.627Z,1.50
2022-12-24T01:42:31.633Z,1.30
2022-12-24T01:42:41.602Z,1.20
2022-12-24T01:42:51.524Z,1.10
2022-12-24T01:43:01.572Z,1.80
2022-12-24T01:43:11.680Z,2.60
2022-12-24T01:43:21.680Z,2.60
2022-12-24T01:43:31.537Z,2.00
2022-12-24T01:43:41.584Z,0.50
2022-12-24T01:43:51.578Z,0.40
2022-12-24T01:44:01.571Z,0.50
2022-12-24T01:44:11.583Z,0.40
2022-12-24T01:44:21.653Z,0.40
2022-12-24T01:44:36.623Z,0.20
2022-12-24T01:44:41.595Z,0.30
2022-12-24T01:44:51.590Z,0.20
2022-12-24T01:45:01.667Z,0.50
2022-12-24T01:45:11.623Z,0.60
2022-12-24T01:45:21.536Z,0.60
2022-12-24T01:45:31.559Z,0.60
2022-12-24T01:45:41.526Z,0.20
2022-12-24T01:45:51.546Z,1.00
2022-12-24T01:46:01.711Z,2.10
2022-12-24T01:46:11.707Z,2.30
2022-12-24T01:46:21.647Z,1.40
2022-12-24T01:46:31.614Z,0.30
2022-12-24T01:46:41.527Z,0.20
2022-12-24T01:46:51.799Z,0.50
2022-12-24T01:47:01.604Z,0.60
2022-12-24T01:47:11.669Z,0.60
2022-12-24T01:47:21.529Z,0.20
2022-12-24T01:47:31.643Z,0.10
2022-12-24T01:47:41.646Z,0.10
2022-12-24T01:47:51.520Z,0.90
2022-12-24T01:48:01.643Z,1.20
2022-12-24T01:48:11.621Z,1.50
2022-12-24T01:48:21.636Z,1.10
2022-12-24T01:48:31.563Z,0.80
2022-12-24T01:48:41.637Z,0.60
2022-12-24T01:48:51.546Z,0.30
2022-12-24T01:49:01.541Z,0.20
2022-12-24T01:49:11.656Z,0.40
2022-12-24T01:49:21.585Z,0.90
2022-12-24T01:49:31.529Z,0.80
2022-12-24T01:49:41.547Z,0.80
2022-12-24T01:49:51.625Z,0.30
2022-12-24T01:50:01.554Z,0.20
2022-12-24T01:50:11.629Z,1.20
2022-12-24T01:50:21.520Z,1.20
2022-12-24T01:50:31.627Z,1.20
2022-12-24T01:50:41.544Z,0.20
2022-12-24T01:50:51.648Z,0.20
2022-12-24T01:51:01.556Z,0.20
2022-12-24T01:51:11.540Z,0.10
2022-12-24T01:51:21.569Z,0.40
2022-12-24T01:51:31.585Z,0.80
2022-12-24T01:51:41.562Z,1.30
2022-12-24T01:51:51.560Z,1.00
2022-12-24T01:52:01.584Z,1.50
2022-12-24T01:52:11.614Z,1.30
2022-12-24T01:52:21.539Z,1.40
2022-12-24T01:52:31.619Z,0.80
2022-12-24T01:52:41.625Z,0.50
2022-12-24T01:52:51.668Z,0.60
2022-12-24T01:53:01.578Z,0.30
2022-12-24T01:53:11.605Z,0.30
2022-12-24T01:53:21.550Z,1.10
2022-12-24T01:53:31.537Z,1.00
2022-12-24T01:53:41.617Z,1.00
2022-12-24T01:53:51.518Z,0.50
2022-12-24T01:54:01.627Z,0.70
2022-12-24T01:54:11.518Z,0.90
2022-12-24T01:54:21.613Z,1.10
2022-12-24T01:54:31.541Z,1.00
2022-12-24T01:54:41.580Z,1.00
2022-12-24T01:54:51.650Z,1.10
2022-12-24T01:55:01.645Z,1.10
2022-12-24T01:55:11.540Z,1.10
2022-12-24T01:55:21.612Z,0.60
2022-12-24T01:55:31.636Z,0.80
2022-12-24T01:55:41.548Z,1.40
2022-12-24T01:55:51.639Z,1.40
2022-12-24T01:56:01.623Z,1.00
2022-12-24T01:56:11.643Z,0.40
2022-12-24T01:56:21.529Z,0.20
2022-12-24T01:56:31.582Z,0.30
2022-12-24T01:56:41.609Z,0.80
2022-12-24T01:56:51.558Z,0.70
2022-12-24T01:57:01.539Z,0.60
2022-12-24T01:57:11.629Z,0.20
2022-12-24T01:57:21.580Z,1.50
2022-12-24T01:57:31.551Z,2.00
2022-12-24T01:57:41.631Z,3.00
2022-12-24T01:57:51.654Z,1.80
2022-12-24T01:58:01.605Z,1.30
2022-12-24T01:58:11.628Z,0.50
2022-12-24T01:58:21.555Z,0.40
2022-12-24T01:58:31.606Z,0.30
2022-12-24T01:58:41.525Z,0.30
2022-12-24T01:58:51.626Z,0.40
2022-12-24T01:59:01.549Z,0.60
2022-12-24T01:59:11.529Z,1.10
2022-12-24T01:59:21.640Z,1.40
2022-12-24T01:59:31.589Z,1.50
2022-12-24T01:59:41.521Z,2.90
2022-12-24T01:59:51.633Z,2.60
2022-12-24T02:00:01.553Z,2.20
2022-12-24T02:00:11.627Z,0.50
2022-12-24T02:00:21.633Z,0.60
2022-12-24T02:00:31.560Z,1.00
2022-12-24T02:00:41.547Z,0.80
2022-12-24T02:00:51.557Z,0.80
2022-12-24T02:01:01.577Z,0.50
2022-12-24T02:01:11.771Z,0.40
2022-12-24T02:01:21.627Z,0.40
2022-12-24T02:01:31.655Z,0.50
2022-12-24T02:01:41.668Z,0.90
2022-12-24T02:01:51.678Z,0.80
2022-12-24T02:02:01.754Z,0.60
2022-12-24T02:02:11.802Z,0.30
2022-12-24T02:02:21.801Z,0.30
2022-12-24T02:02:31.821Z,0.30
2022-12-24T02:02:41.665Z,0.70
2022-12-24T02:02:51.776Z,1.10
2022-12-24T02:03:01.632Z,1.10
2022-12-24T02:03:11.703Z,0.70
2022-12-24T02:03:21.704Z,1.00
2022-12-24T02:03:31.797Z,0.90
2022-12-24T02:03:41.689Z,0.80
2022-12-24T02:03:51.712Z,0.70
2022-12-24T02:04:01.636Z,0.90
2022-12-24T02:04:11.554Z,1.80
2022-12-24T02:04:21.623Z,1.80
2022-12-24T02:04:31.525Z,1.50
2022-12-24T02:04:41.573Z,1.30
2022-12-24T02:04:51.642Z,1.30
2022-12-24T02:05:01.555Z,1.70
2022-12-24T02:05:11.533Z,1.20
2022-12-24T02:05:21.611Z,1.00
2022-12-24T02:05:31.528Z,1.10
2022-12-24T02:05:41.595Z,1.30
2022-12-24T02:05:51.535Z,1.60
2022-12-24T02:06:01.585Z,1.40
2022-12-24T02:06:11.582Z,1.40
2022-12-24T02:06:21.576Z,2.00
2022-12-24T02:06:31.621Z,2.20
2022-12-24T02:06:41.585Z,1.80
2022-12-24T02:06:51.629Z,1.40
2022-12-24T02:07:01.530Z,1.40
2022-12-24T02:07:11.557Z,2.00
2022-12-24T02:07:21.555Z,2.50
2022-12-24T02:07:31.678Z,2.80
2022-12-24T02:07:41.568Z,2.50
2022-12-24T02:07:51.619Z,1.70
2022-12-24T02:08:01.558Z,1.90
2022-12-24T02:08:11.626Z,1.80
2022-12-24T02:08:21.647Z,2.00
2022-12-24T02:08:31.579Z,1.50
2022-12-24T02:08:41.593Z,1.90
2022-12-24T02:08:51.608Z,2.00
2022-12-24T02:09:01.572Z,1.90
2022-12-24T02:09:11.619Z,1.80
2022-12-24T02:09:21.632Z,2.40
2022-12-24T02:09:31.623Z,2.40
2022-12-24T02:09:41.593Z,3.00
2022-12-24T02:09:51.699Z,3.00
2022-12-24T02:10:01.682Z,3.40
2022-12-24T02:10:11.633Z,2.90
2022-12-24T02:10:21.632Z,2.80
2022-12-24T02:10:31.648Z,3.00
2022-12-24T02:10:41.575Z,3.10
2022-12-24T02:10:51.616Z,3.20
2022-12-24T02:11:01.522Z,2.70
2022-12-24T02:11:11.620Z,3.50
2022-12-24T02:11:21.647Z,4.30
2022-12-24T02:11:31.602Z,4.80
2022-12-24T02:11:41.637Z,4.80
2022-12-24T02:11:51.570Z,3.70
2022-12-24T02:12:01.525Z,4.10
2022-12-24T02:12:11.536Z,5.40
2022-12-24T02:12:21.597Z,5.70
2022-12-24T02:12:31.659Z,4.90
2022-12-24T02:12:41.540Z,2.60
2022-12-24T02:12:51.663Z,3.10
2022-12-24T02:13:01.593Z,3.10